sensor_id;sensor_type;location;lat;lon;timestamp;P1;durP1;ratioP1;P2;durP2;ratioP2
26486;SDS011;14425;56.136;40.360;2023-05-10T00:00:55;2.95;;;2.00;;
26486;SDS011;14425;56.136;40.360;2023-05-10T00:03:21;6.53;;;2.05;;
26486;SDS011;14425;56.136;40.360;2023-05-10T00:05:46;4.03;;;2.00;;
26486;SDS011;14425;56.136;40.360;2023-05-10T00:08:12;4.72;;;1.60;;
26486;SDS011;14425;56.136;40.360;2023-05-10T00:10:37;2.42;;;1.30;;
26486;SDS011;14425;56.136;40.360;2023-05-10T00:13:03;2.08;;;1.48;;
26486;SDS011;14425;56.136;40.360;2023-05-10T00:15:29;4.13;;;1.63;;
26486;SDS011;14425;56.136;40.360;2023-05-10T00:17:56;2.05;;;1.60;;
26486;SDS011;14425;56.136;40.360;2023-05-10T00:20:21;2.30;;;1.42;;
26486;SDS011;14425;56.136;40.360;2023-05-10T00:22:47;2.45;;;1.58;;
26486;SDS011;14425;56.136;40.360;2023-05-10T00:25:12;1.33;;;1.15;;
26486;SDS011;14425;56.136;40.360;2023-05-10T00:27:38;1.70;;;1.40;;
26486;SDS011;14425;56.136;40.360;2023-05-10T00:30:04;2.13;;;1.40;;
26486;SDS011;14425;56.136;40.360;2023-05-10T00:32:33;2.97;;;1.40;;
26486;SDS011;14425;56.136;40.360;2023-05-10T00:34:59;2.88;;;1.25;;
26486;SDS011;14425;56.136;40.360;2023-05-10T00:37:24;3.67;;;1.50;;
26486;SDS011;14425;56.136;40.360;2023-05-10T00:39:50;1.73;;;1.17;;
26486;SDS011;14425;56.136;40.360;2023-05-10T00:42:15;3.25;;;1.38;;
26486;SDS011;14425;56.136;40.360;2023-05-10T00:44:41;2.72;;;1.13;;
26486;SDS011;14425;56.136;40.360;2023-05-10T00:47:07;1.45;;;1.33;;
26486;SDS011;14425;56.136;40.360;2023-05-10T00:49:35;3.25;;;1.30;;
26486;SDS011;14425;56.136;40.360;2023-05-10T00:52:01;2.55;;;1.13;;
26486;SDS011;14425;56.136;40.360;2023-05-10T00:54:28;1.70;;;1.25;;
26486;SDS011;14425;56.136;40.360;2023-05-10T00:56:54;2.28;;;1.30;;
26486;SDS011;14425;56.136;40.360;2023-05-10T00:59:19;1.60;;;1.45;;
26486;SDS011;14425;56.136;40.360;2023-05-10T01:01:45;1.73;;;1.40;;
26486;SDS011;14425;56.136;40.360;2023-05-10T01:04:12;2.40;;;0.98;;
26486;SDS011;14425;56.136;40.360;2023-05-10T01:06:41;1.33;;;1.15;;
26486;SDS011;14425;56.136;40.360;2023-05-10T01:09:07;1.70;;;1.25;;
26486;SDS011;14425;56.136;40.360;2023-05-10T01:11:36;2.75;;;1.48;;
26486;SDS011;14425;56.136;40.360;2023-05-10T01:14:03;2.03;;;1.33;;
26486;SDS011;14425;56.136;40.360;2023-05-10T01:16:32;2.38;;;1.40;;
26486;SDS011;14425;56.136;40.360;2023-05-10T01:19:03;3.45;;;1.20;;
26486;SDS011;14425;56.136;40.360;2023-05-10T01:21:38;2.97;;;1.67;;
26486;SDS011;14425;56.136;40.360;2023-05-10T01:37:42;4.63;;;1.58;;
26486;SDS011;14425;56.136;40.360;2023-05-10T01:42:59;3.08;;;1.73;;
26486;SDS011;14425;56.136;40.360;2023-05-10T01:45:37;2.83;;;2.10;;
26486;SDS011;14425;56.136;40.360;2023-05-10T01:48:11;4.32;;;1.75;;
26486;SDS011;14425;56.136;40.360;2023-05-10T01:50:39;3.88;;;1.52;;
26486;SDS011;14425;56.136;40.360;2023-05-10T01:53:08;2.45;;;1.88;;
26486;SDS011;14425;56.136;40.360;2023-05-10T01:55:39;3.88;;;2.10;;
26486;SDS011;14425;56.136;40.360;2023-05-10T01:58:13;2.67;;;2.00;;
26486;SDS011;14425;56.136;40.360;2023-05-10T02:00:42;2.78;;;2.05;;
26486;SDS011;14425;56.136;40.360;2023-05-10T02:03:11;4.72;;;2.53;;
26486;SDS011;14425;56.136;40.360;2023-05-10T02:05:38;4.03;;;3.00;;
26486;SDS011;14425;56.136;40.360;2023-05-10T02:08:06;3.25;;;2.60;;
26486;SDS011;14425;56.136;40.360;2023-05-10T02:10:36;5.03;;;3.22;;
26486;SDS011;14425;56.136;40.360;2023-05-10T02:13:03;3.97;;;2.95;;
26486;SDS011;14425;56.136;40.360;2023-05-10T02:15:31;4.60;;;3.15;;
26486;SDS011;14425;56.136;40.360;2023-05-10T02:17:58;5.22;;;2.72;;
26486;SDS011;14425;56.136;40.360;2023-05-10T02:20:25;6.50;;;2.78;;
26486;SDS011;14425;56.136;40.360;2023-05-10T02:22:52;3.03;;;2.40;;
26486;SDS011;14425;56.136;40.360;2023-05-10T02:25:20;3.72;;;2.70;;
26486;SDS011;14425;56.136;40.360;2023-05-10T02:27:47;3.10;;;2.40;;
26486;SDS011;14425;56.136;40.360;2023-05-10T02:30:14;6.47;;;2.78;;
26486;SDS011;14425;56.136;40.360;2023-05-10T02:32:40;3.60;;;2.78;;
26486;SDS011;14425;56.136;40.360;2023-05-10T02:35:08;4.03;;;2.58;;
26486;SDS011;14425;56.136;40.360;2023-05-10T02:37:35;4.13;;;2.20;;
26486;SDS011;14425;56.136;40.360;2023-05-10T02:40:03;3.53;;;1.92;;
26486;SDS011;14425;56.136;40.360;2023-05-10T02:42:31;3.33;;;2.80;;
26486;SDS011;14425;56.136;40.360;2023-05-10T02:45:00;2.85;;;2.22;;
26486;SDS011;14425;56.136;40.360;2023-05-10T02:47:33;2.67;;;2.03;;
26486;SDS011;14425;56.136;40.360;2023-05-10T02:49:59;4.97;;;2.58;;
26486;SDS011;14425;56.136;40.360;2023-05-10T02:52:26;2.38;;;2.17;;
26486;SDS011;14425;56.136;40.360;2023-05-10T02:54:55;5.68;;;2.10;;
26486;SDS011;14425;56.136;40.360;2023-05-10T02:57:25;5.20;;;2.60;;
26486;SDS011;14425;56.136;40.360;2023-05-10T02:59:54;2.33;;;1.77;;
26486;SDS011;14425;56.136;40.360;2023-05-10T03:02:20;4.25;;;2.20;;
26486;SDS011;14425;56.136;40.360;2023-05-10T03:04:46;2.35;;;2.10;;
26486;SDS011;14425;56.136;40.360;2023-05-10T03:07:11;3.22;;;2.05;;
26486;SDS011;14425;56.136;40.360;2023-05-10T03:09:37;7.05;;;2.30;;
26486;SDS011;14425;56.136;40.360;2023-05-10T03:15:09;6.68;;;2.03;;
26486;SDS011;14425;56.136;40.360;2023-05-10T03:20:47;2.95;;;2.00;;
26486;SDS011;14425;56.136;40.360;2023-05-10T03:25:44;3.15;;;1.77;;
26486;SDS011;14425;56.136;40.360;2023-05-10T03:28:12;3.65;;;1.90;;
26486;SDS011;14425;56.136;40.360;2023-05-10T03:30:40;2.85;;;2.05;;
26486;SDS011;14425;56.136;40.360;2023-05-10T03:33:06;3.38;;;1.80;;
26486;SDS011;14425;56.136;40.360;2023-05-10T03:35:32;1.80;;;1.60;;
26486;SDS011;14425;56.136;40.360;2023-05-10T03:37:57;3.38;;;1.70;;
26486;SDS011;14425;56.136;40.360;2023-05-10T03:40:23;4.18;;;1.70;;
26486;SDS011;14425;56.136;40.360;2023-05-10T03:42:49;3.35;;;2.00;;
26486;SDS011;14425;56.136;40.360;2023-05-10T03:45:15;4.35;;;2.03;;
26486;SDS011;14425;56.136;40.360;2023-05-10T03:47:40;3.20;;;1.88;;
26486;SDS011;14425;56.136;40.360;2023-05-10T03:50:06;2.20;;;1.63;;
26486;SDS011;14425;56.136;40.360;2023-05-10T03:52:32;4.40;;;2.00;;
26486;SDS011;14425;56.136;40.360;2023-05-10T03:54:58;3.65;;;2.50;;
26486;SDS011;14425;56.136;40.360;2023-05-10T03:57:23;8.43;;;2.58;;
26486;SDS011;14425;56.136;40.360;2023-05-10T03:59:49;2.40;;;1.98;;
26486;SDS011;14425;56.136;40.360;2023-05-10T04:02:15;5.30;;;1.77;;
26486;SDS011;14425;56.136;40.360;2023-05-10T04:04:40;3.35;;;2.25;;
26486;SDS011;14425;56.136;40.360;2023-05-10T04:07:06;2.70;;;2.10;;
26486;SDS011;14425;56.136;40.360;2023-05-10T04:09:31;4.43;;;2.10;;
26486;SDS011;14425;56.136;40.360;2023-05-10T04:11:58;4.10;;;2.10;;
26486;SDS011;14425;56.136;40.360;2023-05-10T04:14:24;5.35;;;2.55;;
26486;SDS011;14425;56.136;40.360;2023-05-10T04:16:49;7.45;;;2.60;;
26486;SDS011;14425;56.136;40.360;2023-05-10T04:19:15;7.30;;;3.05;;
26486;SDS011;14425;56.136;40.360;2023-05-10T04:21:40;4.05;;;2.28;;
26486;SDS011;14425;56.136;40.360;2023-05-10T04:24:06;4.32;;;2.47;;
26486;SDS011;14425;56.136;40.360;2023-05-10T04:26:31;7.07;;;2.35;;
26486;SDS011;14425;56.136;40.360;2023-05-10T04:28:57;3.90;;;2.35;;
26486;SDS011;14425;56.136;40.360;2023-05-10T04:31:22;4.13;;;2.20;;
26486;SDS011;14425;56.136;40.360;2023-05-10T04:33:48;6.07;;;3.25;;
26486;SDS011;14425;56.136;40.360;2023-05-10T04:36:13;5.90;;;2.70;;
26486;SDS011;14425;56.136;40.360;2023-05-10T04:38:39;4.85;;;2.17;;
26486;SDS011;14425;56.136;40.360;2023-05-10T04:41:05;8.27;;;3.47;;
26486;SDS011;14425;56.136;40.360;2023-05-10T04:43:32;9.70;;;3.63;;
26486;SDS011;14425;56.136;40.360;2023-05-10T04:45:58;6.88;;;3.97;;
26486;SDS011;14425;56.136;40.360;2023-05-10T04:48:23;5.80;;;3.22;;
26486;SDS011;14425;56.136;40.360;2023-05-10T04:50:49;5.57;;;3.30;;
26486;SDS011;14425;56.136;40.360;2023-05-10T04:53:14;12.85;;;3.50;;
26486;SDS011;14425;56.136;40.360;2023-05-10T04:55:40;9.18;;;4.10;;
26486;SDS011;14425;56.136;40.360;2023-05-10T04:58:05;5.00;;;3.53;;
26486;SDS011;14425;56.136;40.360;2023-05-10T05:00:31;6.10;;;3.15;;
26486;SDS011;14425;56.136;40.360;2023-05-10T05:02:58;10.07;;;3.00;;
26486;SDS011;14425;56.136;40.360;2023-05-10T05:05:23;5.53;;;2.95;;
26486;SDS011;14425;56.136;40.360;2023-05-10T05:07:49;7.35;;;2.88;;
26486;SDS011;14425;56.136;40.360;2023-05-10T05:10:15;9.35;;;3.42;;
26486;SDS011;14425;56.136;40.360;2023-05-10T05:12:41;5.43;;;3.15;;
26486;SDS011;14425;56.136;40.360;2023-05-10T05:15:06;4.47;;;3.38;;
26486;SDS011;14425;56.136;40.360;2023-05-10T05:17:34;3.92;;;2.42;;
26486;SDS011;14425;56.136;40.360;2023-05-10T05:20:00;5.90;;;2.53;;
26486;SDS011;14425;56.136;40.360;2023-05-10T05:22:25;5.40;;;3.80;;
26486;SDS011;14425;56.136;40.360;2023-05-10T05:24:57;11.73;;;4.22;;
26486;SDS011;14425;56.136;40.360;2023-05-10T05:27:23;10.07;;;4.00;;
26486;SDS011;14425;56.136;40.360;2023-05-10T05:29:54;9.93;;;4.10;;
26486;SDS011;14425;56.136;40.360;2023-05-10T05:32:21;11.90;;;4.40;;
26486;SDS011;14425;56.136;40.360;2023-05-10T05:34:47;7.78;;;3.63;;
26486;SDS011;14425;56.136;40.360;2023-05-10T05:37:16;9.82;;;3.95;;
26486;SDS011;14425;56.136;40.360;2023-05-10T05:39:43;7.35;;;3.83;;
26486;SDS011;14425;56.136;40.360;2023-05-10T05:42:10;10.43;;;4.00;;
26486;SDS011;14425;56.136;40.360;2023-05-10T05:44:36;11.30;;;3.63;;
26486;SDS011;14425;56.136;40.360;2023-05-10T05:47:02;10.68;;;3.90;;
26486;SDS011;14425;56.136;40.360;2023-05-10T05:49:27;11.32;;;3.97;;
26486;SDS011;14425;56.136;40.360;2023-05-10T05:51:53;15.43;;;4.18;;
26486;SDS011;14425;56.136;40.360;2023-05-10T05:54:18;9.70;;;4.30;;
26486;SDS011;14425;56.136;40.360;2023-05-10T05:56:44;8.02;;;3.50;;
26486;SDS011;14425;56.136;40.360;2023-05-10T05:59:10;7.72;;;3.60;;
26486;SDS011;14425;56.136;40.360;2023-05-10T06:01:36;5.85;;;3.13;;
26486;SDS011;14425;56.136;40.360;2023-05-10T06:04:01;8.50;;;3.60;;
26486;SDS011;14425;56.136;40.360;2023-05-10T06:06:27;7.32;;;3.85;;
26486;SDS011;14425;56.136;40.360;2023-05-10T06:08:52;16.67;;;4.63;;
26486;SDS011;14425;56.136;40.360;2023-05-10T06:11:18;7.80;;;3.90;;
26486;SDS011;14425;56.136;40.360;2023-05-10T06:13:43;12.95;;;3.83;;
26486;SDS011;14425;56.136;40.360;2023-05-10T06:16:09;7.45;;;3.78;;
26486;SDS011;14425;56.136;40.360;2023-05-10T06:18:35;11.77;;;3.38;;
26486;SDS011;14425;56.136;40.360;2023-05-10T06:21:01;7.93;;;3.85;;
26486;SDS011;14425;56.136;40.360;2023-05-10T06:23:26;8.23;;;3.42;;
26486;SDS011;14425;56.136;40.360;2023-05-10T06:25:52;7.10;;;3.35;;
26486;SDS011;14425;56.136;40.360;2023-05-10T06:28:17;12.75;;;3.90;;
26486;SDS011;14425;56.136;40.360;2023-05-10T06:30:43;5.13;;;2.80;;
26486;SDS011;14425;56.136;40.360;2023-05-10T06:33:09;7.25;;;3.45;;
26486;SDS011;14425;56.136;40.360;2023-05-10T06:35:35;2.92;;;2.60;;
26486;SDS011;14425;56.136;40.360;2023-05-10T06:38:01;6.68;;;3.03;;
26486;SDS011;14425;56.136;40.360;2023-05-10T06:40:27;4.70;;;3.13;;
26486;SDS011;14425;56.136;40.360;2023-05-10T06:42:53;4.53;;;3.00;;
26486;SDS011;14425;56.136;40.360;2023-05-10T06:45:18;7.70;;;3.63;;
26486;SDS011;14425;56.136;40.360;2023-05-10T06:47:44;3.35;;;2.70;;
26486;SDS011;14425;56.136;40.360;2023-05-10T06:50:10;6.43;;;3.10;;
26486;SDS011;14425;56.136;40.360;2023-05-10T06:52:36;6.13;;;2.72;;
26486;SDS011;14425;56.136;40.360;2023-05-10T06:55:05;4.93;;;1.90;;
26486;SDS011;14425;56.136;40.360;2023-05-10T06:57:31;4.15;;;2.15;;
26486;SDS011;14425;56.136;40.360;2023-05-10T06:59:57;2.78;;;2.13;;
26486;SDS011;14425;56.136;40.360;2023-05-10T07:02:23;7.25;;;2.70;;
26486;SDS011;14425;56.136;40.360;2023-05-10T07:04:49;2.35;;;1.80;;
26486;SDS011;14425;56.136;40.360;2023-05-10T07:07:15;5.20;;;2.28;;
26486;SDS011;14425;56.136;40.360;2023-05-10T07:09:40;5.55;;;2.30;;
26486;SDS011;14425;56.136;40.360;2023-05-10T07:12:06;2.95;;;2.47;;
26486;SDS011;14425;56.136;40.360;2023-05-10T07:14:31;4.63;;;1.90;;
26486;SDS011;14425;56.136;40.360;2023-05-10T07:16:57;1.63;;;1.48;;
26486;SDS011;14425;56.136;40.360;2023-05-10T07:19:23;5.47;;;1.83;;
26486;SDS011;14425;56.136;40.360;2023-05-10T07:21:48;5.75;;;1.63;;
26486;SDS011;14425;56.136;40.360;2023-05-10T07:24:16;4.43;;;1.95;;
26486;SDS011;14425;56.136;40.360;2023-05-10T07:26:41;1.63;;;1.23;;
26486;SDS011;14425;56.136;40.360;2023-05-10T07:29:07;4.78;;;1.70;;
26486;SDS011;14425;56.136;40.360;2023-05-10T07:31:32;5.25;;;1.58;;
26486;SDS011;14425;56.136;40.360;2023-05-10T07:33:58;5.15;;;1.67;;
26486;SDS011;14425;56.136;40.360;2023-05-10T07:36:23;3.53;;;1.40;;
26486;SDS011;14425;56.136;40.360;2023-05-10T07:38:49;7.55;;;2.08;;
26486;SDS011;14425;56.136;40.360;2023-05-10T07:41:15;2.80;;;1.80;;
26486;SDS011;14425;56.136;40.360;2023-05-10T07:43:40;1.67;;;1.38;;
26486;SDS011;14425;56.136;40.360;2023-05-10T07:46:06;4.38;;;1.40;;
26486;SDS011;14425;56.136;40.360;2023-05-10T07:48:32;2.42;;;1.75;;
26486;SDS011;14425;56.136;40.360;2023-05-10T07:50:57;2.13;;;1.60;;
26486;SDS011;14425;56.136;40.360;2023-05-10T07:53:23;2.05;;;1.48;;
26486;SDS011;14425;56.136;40.360;2023-05-10T07:55:53;1.67;;;1.35;;
26486;SDS011;14425;56.136;40.360;2023-05-10T07:58:22;8.93;;;1.85;;
26486;SDS011;14425;56.136;40.360;2023-05-10T08:00:47;1.85;;;1.38;;
26486;SDS011;14425;56.136;40.360;2023-05-10T08:03:14;2.35;;;1.38;;
26486;SDS011;14425;56.136;40.360;2023-05-10T08:05:39;2.58;;;1.42;;
26486;SDS011;14425;56.136;40.360;2023-05-10T08:08:05;6.28;;;1.80;;
26486;SDS011;14425;56.136;40.360;2023-05-10T08:10:31;3.45;;;1.50;;
26486;SDS011;14425;56.136;40.360;2023-05-10T08:12:56;2.83;;;1.25;;
26486;SDS011;14425;56.136;40.360;2023-05-10T08:15:23;2.10;;;1.73;;
26486;SDS011;14425;56.136;40.360;2023-05-10T08:17:50;1.83;;;1.25;;
26486;SDS011;14425;56.136;40.360;2023-05-10T08:20:16;6.43;;;1.42;;
26486;SDS011;14425;56.136;40.360;2023-05-10T08:22:44;5.00;;;1.63;;
26486;SDS011;14425;56.136;40.360;2023-05-10T08:25:10;6.30;;;2.00;;
26486;SDS011;14425;56.136;40.360;2023-05-10T08:27:36;2.15;;;1.65;;
26486;SDS011;14425;56.136;40.360;2023-05-10T08:30:01;3.70;;;1.55;;
26486;SDS011;14425;56.136;40.360;2023-05-10T08:32:31;1.63;;;1.40;;
26486;SDS011;14425;56.136;40.360;2023-05-10T08:34:57;3.65;;;1.67;;
26486;SDS011;14425;56.136;40.360;2023-05-10T08:37:23;5.47;;;1.70;;
26486;SDS011;14425;56.136;40.360;2023-05-10T08:39:49;2.20;;;1.58;;
26486;SDS011;14425;56.136;40.360;2023-05-10T08:42:15;2.72;;;1.83;;
26486;SDS011;14425;56.136;40.360;2023-05-10T08:44:45;9.32;;;2.05;;
26486;SDS011;14425;56.136;40.360;2023-05-10T08:47:13;1.42;;;1.33;;
26486;SDS011;14425;56.136;40.360;2023-05-10T08:49:41;5.75;;;1.95;;
26486;SDS011;14425;56.136;40.360;2023-05-10T08:52:08;3.30;;;1.75;;
26486;SDS011;14425;56.136;40.360;2023-05-10T08:54:38;3.10;;;1.67;;
26486;SDS011;14425;56.136;40.360;2023-05-10T08:57:04;6.35;;;1.48;;
26486;SDS011;14425;56.136;40.360;2023-05-10T08:59:30;4.18;;;1.60;;
26486;SDS011;14425;56.136;40.360;2023-05-10T09:01:56;2.95;;;1.50;;
26486;SDS011;14425;56.136;40.360;2023-05-10T09:04:23;6.22;;;1.52;;
26486;SDS011;14425;56.136;40.360;2023-05-10T09:06:49;2.17;;;1.50;;
26486;SDS011;14425;56.136;40.360;2023-05-10T09:09:15;2.20;;;1.35;;
26486;SDS011;14425;56.136;40.360;2023-05-10T09:11:41;2.60;;;1.30;;
26486;SDS011;14425;56.136;40.360;2023-05-10T09:14:07;4.25;;;1.38;;
26486;SDS011;14425;56.136;40.360;2023-05-10T09:16:34;2.25;;;1.55;;
26486;SDS011;14425;56.136;40.360;2023-05-10T09:19:00;2.92;;;1.27;;
26486;SDS011;14425;56.136;40.360;2023-05-10T09:21:25;2.15;;;1.17;;
26486;SDS011;14425;56.136;40.360;2023-05-10T09:23:51;3.60;;;1.48;;
26486;SDS011;14425;56.136;40.360;2023-05-10T09:26:23;7.22;;;1.65;;
26486;SDS011;14425;56.136;40.360;2023-05-10T09:28:53;1.58;;;1.20;;
26486;SDS011;14425;56.136;40.360;2023-05-10T09:31:20;2.38;;;1.15;;
26486;SDS011;14425;56.136;40.360;2023-05-10T09:33:46;1.20;;;1.10;;
26486;SDS011;14425;56.136;40.360;2023-05-10T09:36:13;5.32;;;1.30;;
26486;SDS011;14425;56.136;40.360;2023-05-10T09:38:49;3.55;;;1.20;;
26486;SDS011;14425;56.136;40.360;2023-05-10T09:41:17;3.70;;;1.17;;
26486;SDS011;14425;56.136;40.360;2023-05-10T09:43:49;2.80;;;1.02;;
26486;SDS011;14425;56.136;40.360;2023-05-10T09:46:15;1.75;;;1.40;;
26486;SDS011;14425;56.136;40.360;2023-05-10T09:48:42;2.25;;;1.25;;
26486;SDS011;14425;56.136;40.360;2023-05-10T09:51:24;2.67;;;1.50;;
26486;SDS011;14425;56.136;40.360;2023-05-10T09:54:08;4.07;;;1.08;;
26486;SDS011;14425;56.136;40.360;2023-05-10T09:56:38;2.88;;;1.20;;
26486;SDS011;14425;56.136;40.360;2023-05-10T10:01:33;1.42;;;1.33;;
26486;SDS011;14425;56.136;40.360;2023-05-10T10:03:59;3.78;;;1.98;;
26486;SDS011;14425;56.136;40.360;2023-05-10T10:06:29;1.40;;;1.30;;
26486;SDS011;14425;56.136;40.360;2023-05-10T10:08:54;3.33;;;1.65;;
26486;SDS011;14425;56.136;40.360;2023-05-10T10:11:21;4.10;;;1.52;;
26486;SDS011;14425;56.136;40.360;2023-05-10T10:13:48;2.17;;;1.10;;
26486;SDS011;14425;56.136;40.360;2023-05-10T10:16:14;4.00;;;1.50;;
26486;SDS011;14425;56.136;40.360;2023-05-10T10:18:40;1.80;;;1.30;;
26486;SDS011;14425;56.136;40.360;2023-05-10T10:21:07;10.75;;;1.83;;
26486;SDS011;14425;56.136;40.360;2023-05-10T10:23:36;3.33;;;1.75;;
26486;SDS011;14425;56.136;40.360;2023-05-10T10:26:02;7.20;;;1.60;;
26486;SDS011;14425;56.136;40.360;2023-05-10T10:31:26;8.27;;;1.23;;
26486;SDS011;14425;56.136;40.360;2023-05-10T10:34:00;3.35;;;2.08;;
26486;SDS011;14425;56.136;40.360;2023-05-10T10:38:59;1.33;;;1.23;;
26486;SDS011;14425;56.136;40.360;2023-05-10T10:41:28;4.30;;;1.10;;
26486;SDS011;14425;56.136;40.360;2023-05-10T10:50:07;1.58;;;1.15;;
26486;SDS011;14425;56.136;40.360;2023-05-10T10:55:13;4.60;;;1.02;;
26486;SDS011;14425;56.136;40.360;2023-05-10T10:57:55;5.50;;;1.27;;
26486;SDS011;14425;56.136;40.360;2023-05-10T11:00:32;2.13;;;1.33;;
26486;SDS011;14425;56.136;40.360;2023-05-10T11:03:06;1.92;;;1.30;;
26486;SDS011;14425;56.136;40.360;2023-05-10T11:08:18;3.17;;;1.20;;
26486;SDS011;14425;56.136;40.360;2023-05-10T11:16:24;1.15;;;1.00;;
26486;SDS011;14425;56.136;40.360;2023-05-10T11:19:03;4.82;;;1.10;;
26486;SDS011;14425;56.136;40.360;2023-05-10T11:23:58;2.35;;;0.90;;
26486;SDS011;14425;56.136;40.360;2023-05-10T11:26:25;2.45;;;1.23;;
26486;SDS011;14425;56.136;40.360;2023-05-10T11:28:55;6.80;;;2.75;;
26486;SDS011;14425;56.136;40.360;2023-05-10T11:31:21;3.33;;;0.80;;
26486;SDS011;14425;56.136;40.360;2023-05-10T11:33:58;1.38;;;1.08;;
26486;SDS011;14425;56.136;40.360;2023-05-10T11:36:32;1.40;;;1.30;;
26486;SDS011;14425;56.136;40.360;2023-05-10T11:39:01;2.10;;;1.13;;
26486;SDS011;14425;56.136;40.360;2023-05-10T11:41:28;3.05;;;1.00;;
26486;SDS011;14425;56.136;40.360;2023-05-10T11:43:55;7.03;;;1.33;;
26486;SDS011;14425;56.136;40.360;2023-05-10T11:46:23;1.17;;;1.08;;
26486;SDS011;14425;56.136;40.360;2023-05-10T11:48:50;7.90;;;1.10;;
26486;SDS011;14425;56.136;40.360;2023-05-10T11:51:23;2.97;;;1.20;;
26486;SDS011;14425;56.136;40.360;2023-05-10T11:53:53;1.67;;;1.20;;
26486;SDS011;14425;56.136;40.360;2023-05-10T11:56:20;3.38;;;1.65;;
26486;SDS011;14425;56.136;40.360;2023-05-10T11:58:52;2.03;;;1.20;;
26486;SDS011;14425;56.136;40.360;2023-05-10T12:01:20;1.23;;;0.95;;
26486;SDS011;14425;56.136;40.360;2023-05-10T12:03:50;3.78;;;1.15;;
26486;SDS011;14425;56.136;40.360;2023-05-10T12:06:18;1.27;;;0.98;;
26486;SDS011;14425;56.136;40.360;2023-05-10T12:08:45;3.28;;;1.10;;
26486;SDS011;14425;56.136;40.360;2023-05-10T12:11:12;2.38;;;1.10;;
26486;SDS011;14425;56.136;40.360;2023-05-10T12:13:46;3.45;;;1.30;;
26486;SDS011;14425;56.136;40.360;2023-05-10T12:16:14;1.35;;;1.00;;
26486;SDS011;14425;56.136;40.360;2023-05-10T12:18:41;3.65;;;1.50;;
26486;SDS011;14425;56.136;40.360;2023-05-10T12:21:12;3.60;;;1.25;;
26486;SDS011;14425;56.136;40.360;2023-05-10T12:23:38;1.77;;;0.95;;
26486;SDS011;14425;56.136;40.360;2023-05-10T12:26:04;1.85;;;0.98;;
26486;SDS011;14425;56.136;40.360;2023-05-10T12:28:31;3.15;;;1.25;;
26486;SDS011;14425;56.136;40.360;2023-05-10T12:31:01;4.25;;;1.30;;
26486;SDS011;14425;56.136;40.360;2023-05-10T12:33:40;1.85;;;0.90;;
26486;SDS011;14425;56.136;40.360;2023-05-10T12:36:09;4.47;;;1.23;;
26486;SDS011;14425;56.136;40.360;2023-05-10T12:38:37;4.80;;;1.60;;
26486;SDS011;14425;56.136;40.360;2023-05-10T12:41:08;3.00;;;1.40;;
26486;SDS011;14425;56.136;40.360;2023-05-10T12:43:35;1.50;;;1.33;;
26486;SDS011;14425;56.136;40.360;2023-05-10T12:46:11;6.40;;;1.77;;
26486;SDS011;14425;56.136;40.360;2023-05-10T12:48:39;2.80;;;1.80;;
26486;SDS011;14425;56.136;40.360;2023-05-10T12:51:06;1.70;;;1.30;;
26486;SDS011;14425;56.136;40.360;2023-05-10T12:53:35;4.90;;;1.58;;
26486;SDS011;14425;56.136;40.360;2023-05-10T12:56:00;2.47;;;1.33;;
26486;SDS011;14425;56.136;40.360;2023-05-10T12:58:26;1.85;;;1.38;;
26486;SDS011;14425;56.136;40.360;2023-05-10T13:00:52;4.82;;;1.40;;
26486;SDS011;14425;56.136;40.360;2023-05-10T13:03:17;1.50;;;0.98;;
26486;SDS011;14425;56.136;40.360;2023-05-10T13:05:43;2.35;;;1.30;;
26486;SDS011;14425;56.136;40.360;2023-05-10T13:08:09;5.65;;;1.40;;
26486;SDS011;14425;56.136;40.360;2023-05-10T13:10:34;2.88;;;1.98;;
26486;SDS011;14425;56.136;40.360;2023-05-10T13:13:00;2.42;;;1.38;;
26486;SDS011;14425;56.136;40.360;2023-05-10T13:15:26;4.53;;;1.10;;
26486;SDS011;14425;56.136;40.360;2023-05-10T13:17:52;3.05;;;1.33;;
26486;SDS011;14425;56.136;40.360;2023-05-10T13:20:18;7.80;;;2.97;;
26486;SDS011;14425;56.136;40.360;2023-05-10T13:22:44;3.67;;;2.28;;
26486;SDS011;14425;56.136;40.360;2023-05-10T13:25:13;12.65;;;4.07;;
26486;SDS011;14425;56.136;40.360;2023-05-10T13:27:39;7.82;;;2.58;;
26486;SDS011;14425;56.136;40.360;2023-05-10T13:30:05;9.18;;;2.47;;
26486;SDS011;14425;56.136;40.360;2023-05-10T13:32:34;6.93;;;1.67;;
26486;SDS011;14425;56.136;40.360;2023-05-10T13:35:03;3.10;;;1.67;;
26486;SDS011;14425;56.136;40.360;2023-05-10T13:37:31;3.70;;;1.42;;
26486;SDS011;14425;56.136;40.360;2023-05-10T13:40:00;6.88;;;1.75;;
26486;SDS011;14425;56.136;40.360;2023-05-10T13:42:26;5.47;;;2.30;;
26486;SDS011;14425;56.136;40.360;2023-05-10T13:44:52;7.43;;;4.32;;
26486;SDS011;14425;56.136;40.360;2023-05-10T13:47:20;7.95;;;3.92;;
26486;SDS011;14425;56.136;40.360;2023-05-10T13:49:46;2.92;;;1.63;;
26486;SDS011;14425;56.136;40.360;2023-05-10T13:52:12;5.50;;;1.88;;
26486;SDS011;14425;56.136;40.360;2023-05-10T13:54:38;5.25;;;1.40;;
26486;SDS011;14425;56.136;40.360;2023-05-10T13:57:04;4.65;;;1.40;;
26486;SDS011;14425;56.136;40.360;2023-05-10T13:59:30;5.18;;;1.70;;
26486;SDS011;14425;56.136;40.360;2023-05-10T14:01:57;3.17;;;1.50;;
26486;SDS011;14425;56.136;40.360;2023-05-10T14:04:23;9.77;;;2.25;;
26486;SDS011;14425;56.136;40.360;2023-05-10T14:06:49;2.70;;;1.60;;
26486;SDS011;14425;56.136;40.360;2023-05-10T14:09:14;4.05;;;1.27;;
26486;SDS011;14425;56.136;40.360;2023-05-10T14:11:40;2.42;;;1.30;;
26486;SDS011;14425;56.136;40.360;2023-05-10T14:14:11;3.53;;;1.60;;
26486;SDS011;14425;56.136;40.360;2023-05-10T14:16:37;4.15;;;2.53;;
26486;SDS011;14425;56.136;40.360;2023-05-10T14:19:03;2.22;;;1.80;;
26486;SDS011;14425;56.136;40.360;2023-05-10T14:21:29;4.95;;;2.03;;
26486;SDS011;14425;56.136;40.360;2023-05-10T14:23:55;3.58;;;1.90;;
26486;SDS011;14425;56.136;40.360;2023-05-10T14:26:21;2.42;;;1.30;;
26486;SDS011;14425;56.136;40.360;2023-05-10T14:28:47;4.13;;;1.63;;
26486;SDS011;14425;56.136;40.360;2023-05-10T14:31:12;5.32;;;1.50;;
26486;SDS011;14425;56.136;40.360;2023-05-10T14:51:45;3.63;;;1.42;;
26486;SDS011;14425;56.136;40.360;2023-05-10T14:54:11;9.48;;;1.98;;
26486;SDS011;14425;56.136;40.360;2023-05-10T14:56:37;11.13;;;2.50;;
26486;SDS011;14425;56.136;40.360;2023-05-10T14:59:03;4.00;;;2.22;;
26486;SDS011;14425;56.136;40.360;2023-05-10T15:01:29;4.22;;;1.13;;
26486;SDS011;14425;56.136;40.360;2023-05-10T15:03:54;4.30;;;1.38;;
26486;SDS011;14425;56.136;40.360;2023-05-10T15:06:23;1.58;;;1.15;;
26486;SDS011;14425;56.136;40.360;2023-05-10T15:08:55;3.22;;;1.40;;
26486;SDS011;14425;56.136;40.360;2023-05-10T15:11:20;10.27;;;1.75;;
26486;SDS011;14425;56.136;40.360;2023-05-10T15:13:46;2.38;;;1.40;;
26486;SDS011;14425;56.136;40.360;2023-05-10T15:16:12;3.53;;;1.63;;
26486;SDS011;14425;56.136;40.360;2023-05-10T15:18:37;2.45;;;1.33;;
26486;SDS011;14425;56.136;40.360;2023-05-10T15:21:03;2.25;;;1.67;;
26486;SDS011;14425;56.136;40.360;2023-05-10T15:23:28;6.93;;;2.00;;
26486;SDS011;14425;56.136;40.360;2023-05-10T15:25:55;4.22;;;1.92;;
26486;SDS011;14425;56.136;40.360;2023-05-10T15:28:21;2.88;;;1.52;;
26486;SDS011;14425;56.136;40.360;2023-05-10T15:30:48;4.68;;;3.55;;
26486;SDS011;14425;56.136;40.360;2023-05-10T15:33:13;3.35;;;1.77;;
26486;SDS011;14425;56.136;40.360;2023-05-10T15:35:39;3.28;;;1.35;;
26486;SDS011;14425;56.136;40.360;2023-05-10T15:38:06;6.43;;;1.95;;
26486;SDS011;14425;56.136;40.360;2023-05-10T15:40:32;3.67;;;1.80;;
26486;SDS011;14425;56.136;40.360;2023-05-10T15:42:57;5.47;;;1.80;;